sensor_id;sensor_type;location;lat;lon;timestamp;P1;durP1;ratioP1;P2;durP2;ratioP2
51664;SDS011;37751;52.408;12.536;2023-05-27T00:00:14;16.63;;;4.82;;
51664;SDS011;37751;52.408;12.536;2023-05-27T00:02:42;19.48;;;4.25;;
51664;SDS011;37751;52.408;12.536;2023-05-27T00:05:10;16.73;;;4.90;;
51664;SDS011;37751;52.408;12.536;2023-05-27T00:07:38;13.43;;;3.83;;
51664;SDS011;37751;52.408;12.536;2023-05-27T00:10:06;12.80;;;4.30;;
51664;SDS011;37751;52.408;12.536;2023-05-27T00:12:34;17.73;;;4.45;;
51664;SDS011;37751;52.408;12.536;2023-05-27T00:15:02;16.48;;;4.10;;
51664;SDS011;37751;52.408;12.536;2023-05-27T00:17:31;23.02;;;5.07;;
51664;SDS011;37751;52.408;12.536;2023-05-27T00:19:59;19.77;;;4.78;;
51664;SDS011;37751;52.408;12.536;2023-05-27T00:22:33;14.45;;;4.03;;
51664;SDS011;37751;52.408;12.536;2023-05-27T00:25:04;14.05;;;4.07;;
51664;SDS011;37751;52.408;12.536;2023-05-27T00:27:32;21.50;;;4.00;;
51664;SDS011;37751;52.408;12.536;2023-05-27T00:30:00;16.17;;;4.18;;
51664;SDS011;37751;52.408;12.536;2023-05-27T00:32:29;11.75;;;3.65;;
51664;SDS011;37751;52.408;12.536;2023-05-27T00:34:56;18.52;;;4.43;;
51664;SDS011;37751;52.408;12.536;2023-05-27T00:37:24;14.35;;;4.10;;
51664;SDS011;37751;52.408;12.536;2023-05-27T00:39:52;16.00;;;4.82;;
51664;SDS011;37751;52.408;12.536;2023-05-27T00:42:20;28.35;;;5.28;;
51664;SDS011;37751;52.408;12.536;2023-05-27T00:44:48;18.38;;;4.00;;
51664;SDS011;37751;52.408;12.536;2023-05-27T00:47:16;19.08;;;4.95;;
51664;SDS011;37751;52.408;12.536;2023-05-27T00:49:45;14.88;;;4.20;;
51664;SDS011;37751;52.408;12.536;2023-05-27T00:52:13;16.70;;;3.75;;
51664;SDS011;37751;52.408;12.536;2023-05-27T00:54:41;19.80;;;5.10;;
51664;SDS011;37751;52.408;12.536;2023-05-27T00:57:09;15.07;;;4.40;;
51664;SDS011;37751;52.408;12.536;2023-05-27T00:59:37;17.23;;;4.17;;
51664;SDS011;37751;52.408;12.536;2023-05-27T01:02:05;17.30;;;4.40;;
51664;SDS011;37751;52.408;12.536;2023-05-27T01:04:33;17.75;;;4.75;;
51664;SDS011;37751;52.408;12.536;2023-05-27T01:12:51;21.27;;;5.55;;
51664;SDS011;37751;52.408;12.536;2023-05-27T01:15:27;18.35;;;7.07;;
51664;SDS011;37751;52.408;12.536;2023-05-27T01:17:59;25.80;;;6.35;;
51664;SDS011;37751;52.408;12.536;2023-05-27T01:20:30;21.20;;;5.80;;
51664;SDS011;37751;52.408;12.536;2023-05-27T01:23:00;19.92;;;5.65;;
51664;SDS011;37751;52.408;12.536;2023-05-27T01:25:29;23.92;;;5.72;;
51664;SDS011;37751;52.408;12.536;2023-05-27T01:27:56;22.73;;;5.20;;
51664;SDS011;37751;52.408;12.536;2023-05-27T01:30:24;21.30;;;5.60;;
51664;SDS011;37751;52.408;12.536;2023-05-27T01:33:01;27.08;;;5.55;;
51664;SDS011;37751;52.408;12.536;2023-05-27T01:38:25;16.55;;;4.55;;
51664;SDS011;37751;52.408;12.536;2023-05-27T01:40:56;19.85;;;4.40;;
51664;SDS011;37751;52.408;12.536;2023-05-27T01:43:25;15.73;;;4.70;;
51664;SDS011;37751;52.408;12.536;2023-05-27T01:45:54;22.13;;;5.27;;
51664;SDS011;37751;52.408;12.536;2023-05-27T01:48:22;24.13;;;4.80;;
51664;SDS011;37751;52.408;12.536;2023-05-27T01:50:50;14.77;;;4.13;;
51664;SDS011;37751;52.408;12.536;2023-05-27T01:53:18;19.73;;;4.90;;
51664;SDS011;37751;52.408;12.536;2023-05-27T01:55:47;18.70;;;4.87;;
51664;SDS011;37751;52.408;12.536;2023-05-27T01:58:15;23.30;;;5.07;;
51664;SDS011;37751;52.408;12.536;2023-05-27T02:00:43;17.07;;;5.00;;
51664;SDS011;37751;52.408;12.536;2023-05-27T02:03:11;18.00;;;4.93;;
51664;SDS011;37751;52.408;12.536;2023-05-27T02:05:39;19.30;;;4.93;;
51664;SDS011;37751;52.408;12.536;2023-05-27T02:08:08;16.53;;;4.47;;
51664;SDS011;37751;52.408;12.536;2023-05-27T02:10:36;15.03;;;4.50;;
51664;SDS011;37751;52.408;12.536;2023-05-27T02:13:03;23.27;;;5.40;;
51664;SDS011;37751;52.408;12.536;2023-05-27T02:15:32;18.23;;;4.93;;
51664;SDS011;37751;52.408;12.536;2023-05-27T02:18:00;16.60;;;4.67;;
51664;SDS011;37751;52.408;12.536;2023-05-27T02:20:28;18.53;;;5.40;;
51664;SDS011;37751;52.408;12.536;2023-05-27T02:22:58;14.33;;;4.50;;
51664;SDS011;37751;52.408;12.536;2023-05-27T02:25:32;24.10;;;5.33;;
51664;SDS011;37751;52.408;12.536;2023-05-27T02:28:00;21.10;;;5.07;;
51664;SDS011;37751;52.408;12.536;2023-05-27T02:30:30;15.23;;;5.07;;
51664;SDS011;37751;52.408;12.536;2023-05-27T02:32:58;14.60;;;4.60;;
51664;SDS011;37751;52.408;12.536;2023-05-27T02:35:26;22.77;;;5.23;;
51664;SDS011;37751;52.408;12.536;2023-05-27T02:37:54;16.07;;;4.80;;
51664;SDS011;37751;52.408;12.536;2023-05-27T02:40:26;19.07;;;5.57;;
51664;SDS011;37751;52.408;12.536;2023-05-27T02:42:56;19.13;;;5.07;;
51664;SDS011;37751;52.408;12.536;2023-05-27T02:45:24;16.63;;;5.73;;
51664;SDS011;37751;52.408;12.536;2023-05-27T02:47:52;20.97;;;5.50;;
51664;SDS011;37751;52.408;12.536;2023-05-27T02:50:22;18.20;;;4.87;;
51664;SDS011;37751;52.408;12.536;2023-05-27T02:52:50;16.17;;;5.27;;
51664;SDS011;37751;52.408;12.536;2023-05-27T02:55:18;19.93;;;5.07;;
51664;SDS011;37751;52.408;12.536;2023-05-27T02:57:46;18.43;;;5.03;;
51664;SDS011;37751;52.408;12.536;2023-05-27T03:00:14;16.47;;;4.97;;
51664;SDS011;37751;52.408;12.536;2023-05-27T03:02:43;21.70;;;5.23;;
51664;SDS011;37751;52.408;12.536;2023-05-27T03:05:11;30.03;;;5.23;;
51664;SDS011;37751;52.408;12.536;2023-05-27T03:07:39;15.90;;;5.33;;
51664;SDS011;37751;52.408;12.536;2023-05-27T03:10:08;23.60;;;6.53;;
51664;SDS011;37751;52.408;12.536;2023-05-27T03:12:36;20.20;;;5.33;;
51664;SDS011;37751;52.408;12.536;2023-05-27T03:15:05;17.70;;;5.30;;
51664;SDS011;37751;52.408;12.536;2023-05-27T03:17:35;23.30;;;6.53;;
51664;SDS011;37751;52.408;12.536;2023-05-27T03:20:05;22.93;;;5.77;;
51664;SDS011;37751;52.408;12.536;2023-05-27T03:22:35;23.40;;;5.17;;
51664;SDS011;37751;52.408;12.536;2023-05-27T03:25:04;14.67;;;4.73;;
51664;SDS011;37751;52.408;12.536;2023-05-27T03:27:33;17.20;;;5.37;;
51664;SDS011;37751;52.408;12.536;2023-05-27T03:30:05;14.67;;;5.20;;
51664;SDS011;37751;52.408;12.536;2023-05-27T03:32:39;19.07;;;5.30;;
51664;SDS011;37751;52.408;12.536;2023-05-27T03:35:07;20.10;;;5.37;;
51664;SDS011;37751;52.408;12.536;2023-05-27T03:37:36;22.63;;;5.80;;
51664;SDS011;37751;52.408;12.536;2023-05-27T03:40:07;17.03;;;6.00;;
51664;SDS011;37751;52.408;12.536;2023-05-27T03:42:36;18.13;;;6.13;;
51664;SDS011;37751;52.408;12.536;2023-05-27T03:45:04;20.53;;;5.83;;
51664;SDS011;37751;52.408;12.536;2023-05-27T03:47:32;15.03;;;5.60;;
51664;SDS011;37751;52.408;12.536;2023-05-27T03:50:02;15.93;;;5.03;;
51664;SDS011;37751;52.408;12.536;2023-05-27T03:52:30;14.63;;;4.90;;
51664;SDS011;37751;52.408;12.536;2023-05-27T03:55:01;13.83;;;4.93;;
51664;SDS011;37751;52.408;12.536;2023-05-27T03:57:29;13.33;;;5.37;;
51664;SDS011;37751;52.408;12.536;2023-05-27T03:59:59;16.60;;;5.60;;
51664;SDS011;37751;52.408;12.536;2023-05-27T04:02:30;18.50;;;5.27;;
51664;SDS011;37751;52.408;12.536;2023-05-27T04:04:58;16.47;;;5.20;;
51664;SDS011;37751;52.408;12.536;2023-05-27T04:07:27;16.67;;;5.10;;
51664;SDS011;37751;52.408;12.536;2023-05-27T04:09:56;18.07;;;4.87;;
51664;SDS011;37751;52.408;12.536;2023-05-27T04:12:23;24.23;;;6.20;;
51664;SDS011;37751;52.408;12.536;2023-05-27T04:14:51;21.30;;;5.27;;
51664;SDS011;37751;52.408;12.536;2023-05-27T04:17:19;17.97;;;6.20;;
51664;SDS011;37751;52.408;12.536;2023-05-27T04:19:47;17.03;;;5.93;;
51664;SDS011;37751;52.408;12.536;2023-05-27T04:22:16;18.07;;;5.57;;
51664;SDS011;37751;52.408;12.536;2023-05-27T04:24:44;22.87;;;6.03;;
51664;SDS011;37751;52.408;12.536;2023-05-27T04:27:12;23.27;;;6.60;;
51664;SDS011;37751;52.408;12.536;2023-05-27T04:29:40;16.43;;;6.60;;
51664;SDS011;37751;52.408;12.536;2023-05-27T04:32:11;19.37;;;5.83;;
51664;SDS011;37751;52.408;12.536;2023-05-27T04:34:39;23.30;;;6.83;;
51664;SDS011;37751;52.408;12.536;2023-05-27T04:37:10;21.67;;;6.87;;
51664;SDS011;37751;52.408;12.536;2023-05-27T04:39:38;16.73;;;6.93;;
51664;SDS011;37751;52.408;12.536;2023-05-27T04:42:13;16.00;;;6.50;;
51664;SDS011;37751;52.408;12.536;2023-05-27T04:44:45;17.10;;;6.10;;
51664;SDS011;37751;52.408;12.536;2023-05-27T04:47:13;17.88;;;6.45;;
51664;SDS011;37751;52.408;12.536;2023-05-27T04:49:41;19.38;;;6.72;;
51664;SDS011;37751;52.408;12.536;2023-05-27T04:52:09;23.05;;;6.20;;
51664;SDS011;37751;52.408;12.536;2023-05-27T04:54:38;16.60;;;6.17;;
51664;SDS011;37751;52.408;12.536;2023-05-27T04:57:14;19.07;;;6.67;;
51664;SDS011;37751;52.408;12.536;2023-05-27T04:59:46;17.30;;;5.75;;
51664;SDS011;37751;52.408;12.536;2023-05-27T05:02:37;17.37;;;6.13;;
51664;SDS011;37751;52.408;12.536;2023-05-27T05:05:10;18.20;;;6.40;;
51664;SDS011;37751;52.408;12.536;2023-05-27T05:07:41;19.97;;;6.50;;
51664;SDS011;37751;52.408;12.536;2023-05-27T05:10:12;15.83;;;6.20;;
51664;SDS011;37751;52.408;12.536;2023-05-27T05:12:47;19.40;;;6.10;;
51664;SDS011;37751;52.408;12.536;2023-05-27T05:15:16;23.05;;;6.82;;
51664;SDS011;37751;52.408;12.536;2023-05-27T05:17:44;15.37;;;6.43;;
51664;SDS011;37751;52.408;12.536;2023-05-27T05:20:12;25.58;;;7.18;;
51664;SDS011;37751;52.408;12.536;2023-05-27T05:22:40;20.27;;;7.32;;
51664;SDS011;37751;52.408;12.536;2023-05-27T05:25:09;15.40;;;6.07;;
51664;SDS011;37751;52.408;12.536;2023-05-27T05:27:45;20.42;;;6.93;;
51664;SDS011;37751;52.408;12.536;2023-05-27T05:30:13;26.08;;;6.95;;
51664;SDS011;37751;52.408;12.536;2023-05-27T05:32:42;20.80;;;7.03;;
51664;SDS011;37751;52.408;12.536;2023-05-27T05:35:09;22.15;;;6.10;;
51664;SDS011;37751;52.408;12.536;2023-05-27T05:37:41;18.73;;;6.05;;
51664;SDS011;37751;52.408;12.536;2023-05-27T05:40:10;17.60;;;5.50;;
51664;SDS011;37751;52.408;12.536;2023-05-27T05:42:46;17.75;;;4.95;;
51664;SDS011;37751;52.408;12.536;2023-05-27T05:45:14;18.85;;;5.90;;
51664;SDS011;37751;52.408;12.536;2023-05-27T05:47:45;19.67;;;5.68;;
51664;SDS011;37751;52.408;12.536;2023-05-27T05:50:17;18.60;;;5.15;;
51664;SDS011;37751;52.408;12.536;2023-05-27T05:52:45;17.08;;;5.78;;
51664;SDS011;37751;52.408;12.536;2023-05-27T05:55:13;24.05;;;6.05;;
51664;SDS011;37751;52.408;12.536;2023-05-27T05:57:41;24.30;;;5.90;;
51664;SDS011;37751;52.408;12.536;2023-05-27T06:00:09;18.35;;;5.65;;
51664;SDS011;37751;52.408;12.536;2023-05-27T06:02:45;21.83;;;5.57;;
51664;SDS011;37751;52.408;12.536;2023-05-27T06:05:32;18.30;;;5.43;;
51664;SDS011;37751;52.408;12.536;2023-05-27T06:08:01;18.48;;;5.32;;
51664;SDS011;37751;52.408;12.536;2023-05-27T06:10:35;26.27;;;5.60;;
51664;SDS011;37751;52.408;12.536;2023-05-27T06:13:03;15.85;;;5.00;;
51664;SDS011;37751;52.408;12.536;2023-05-27T06:15:32;18.20;;;4.95;;
51664;SDS011;37751;52.408;12.536;2023-05-27T06:18:01;20.65;;;5.80;;
51664;SDS011;37751;52.408;12.536;2023-05-27T06:20:29;20.52;;;5.13;;
51664;SDS011;37751;52.408;12.536;2023-05-27T06:22:57;14.05;;;4.93;;
51664;SDS011;37751;52.408;12.536;2023-05-27T06:25:25;21.88;;;6.13;;
51664;SDS011;37751;52.408;12.536;2023-05-27T06:27:56;22.10;;;4.97;;
51664;SDS011;37751;52.408;12.536;2023-05-27T06:30:24;22.40;;;5.40;;
51664;SDS011;37751;52.408;12.536;2023-05-27T06:32:53;15.77;;;5.10;;
51664;SDS011;37751;52.408;12.536;2023-05-27T06:35:23;16.80;;;4.47;;
51664;SDS011;37751;52.408;12.536;2023-05-27T06:37:51;19.45;;;4.80;;
51664;SDS011;37751;52.408;12.536;2023-05-27T06:40:19;23.98;;;4.95;;
51664;SDS011;37751;52.408;12.536;2023-05-27T06:42:47;14.85;;;4.43;;
51664;SDS011;37751;52.408;12.536;2023-05-27T06:45:20;22.38;;;4.82;;
51664;SDS011;37751;52.408;12.536;2023-05-27T06:47:53;20.50;;;4.78;;
51664;SDS011;37751;52.408;12.536;2023-05-27T06:50:21;15.05;;;4.50;;
51664;SDS011;37751;52.408;12.536;2023-05-27T06:52:50;20.05;;;4.15;;
51664;SDS011;37751;52.408;12.536;2023-05-27T06:55:30;14.35;;;3.90;;
51664;SDS011;37751;52.408;12.536;2023-05-27T06:58:16;18.30;;;4.00;;
51664;SDS011;37751;52.408;12.536;2023-05-27T07:00:56;19.35;;;4.65;;
51664;SDS011;37751;52.408;12.536;2023-05-27T07:03:29;21.85;;;4.20;;
51664;SDS011;37751;52.408;12.536;2023-05-27T07:05:57;15.82;;;5.03;;
51664;SDS011;37751;52.408;12.536;2023-05-27T07:08:28;13.50;;;3.88;;
51664;SDS011;37751;52.408;12.536;2023-05-27T07:11:15;13.90;;;4.15;;
51664;SDS011;37751;52.408;12.536;2023-05-27T07:13:43;21.83;;;4.43;;
51664;SDS011;37751;52.408;12.536;2023-05-27T07:16:12;18.73;;;4.28;;
51664;SDS011;37751;52.408;12.536;2023-05-27T07:18:40;12.10;;;3.60;;
51664;SDS011;37751;52.408;12.536;2023-05-27T07:21:08;18.17;;;4.00;;
51664;SDS011;37751;52.408;12.536;2023-05-27T07:23:37;20.13;;;4.30;;
51664;SDS011;37751;52.408;12.536;2023-05-27T07:26:22;16.25;;;3.85;;
51664;SDS011;37751;52.408;12.536;2023-05-27T07:28:51;13.75;;;3.53;;
51664;SDS011;37751;52.408;12.536;2023-05-27T07:31:27;13.25;;;3.58;;
51664;SDS011;37751;52.408;12.536;2023-05-27T07:34:00;21.83;;;3.88;;
51664;SDS011;37751;52.408;12.536;2023-05-27T07:36:28;24.17;;;5.85;;
51664;SDS011;37751;52.408;12.536;2023-05-27T07:38:56;15.75;;;3.63;;
51664;SDS011;37751;52.408;12.536;2023-05-27T07:41:23;15.73;;;3.50;;
51664;SDS011;37751;52.408;12.536;2023-05-27T07:43:52;17.13;;;3.92;;
51664;SDS011;37751;52.408;12.536;2023-05-27T07:46:20;16.35;;;4.35;;
51664;SDS011;37751;52.408;12.536;2023-05-27T07:48:48;18.25;;;3.08;;
51664;SDS011;37751;52.408;12.536;2023-05-27T07:51:16;13.90;;;2.92;;
51664;SDS011;37751;52.408;12.536;2023-05-27T07:53:44;18.35;;;4.85;;
51664;SDS011;37751;52.408;12.536;2023-05-27T07:56:13;11.90;;;3.30;;
51664;SDS011;37751;52.408;12.536;2023-05-27T07:58:41;12.00;;;2.58;;
51664;SDS011;37751;52.408;12.536;2023-05-27T08:01:11;12.02;;;3.05;;
51664;SDS011;37751;52.408;12.536;2023-05-27T08:03:45;10.60;;;2.72;;
51664;SDS011;37751;52.408;12.536;2023-05-27T08:06:16;13.07;;;2.95;;
51664;SDS011;37751;52.408;12.536;2023-05-27T08:09:00;8.43;;;2.53;;
51664;SDS011;37751;52.408;12.536;2023-05-27T08:12:00;9.38;;;2.53;;
51664;SDS011;37751;52.408;12.536;2023-05-27T08:14:48;10.02;;;2.75;;
51664;SDS011;37751;52.408;12.536;2023-05-27T08:17:36;5.72;;;1.90;;
51664;SDS011;37751;52.408;12.536;2023-05-27T08:20:26;13.20;;;2.53;;
51664;SDS011;37751;52.408;12.536;2023-05-27T08:23:09;10.98;;;2.20;;
51664;SDS011;37751;52.408;12.536;2023-05-27T08:25:55;11.38;;;2.33;;
51664;SDS011;37751;52.408;12.536;2023-05-27T08:28:32;8.77;;;2.22;;
51664;SDS011;37751;52.408;12.536;2023-05-27T08:31:23;9.73;;;2.60;;
51664;SDS011;37751;52.408;12.536;2023-05-27T08:33:54;9.48;;;2.70;;
51664;SDS011;37751;52.408;12.536;2023-05-27T08:36:23;6.75;;;2.55;;
51664;SDS011;37751;52.408;12.536;2023-05-27T08:38:51;12.85;;;3.92;;
51664;SDS011;37751;52.408;12.536;2023-05-27T08:41:23;5.82;;;1.75;;
51664;SDS011;37751;52.408;12.536;2023-05-27T08:43:51;9.05;;;2.35;;
51664;SDS011;37751;52.408;12.536;2023-05-27T08:46:28;8.13;;;2.45;;
51664;SDS011;37751;52.408;12.536;2023-05-27T08:48:57;8.63;;;2.15;;
51664;SDS011;37751;52.408;12.536;2023-05-27T08:51:25;11.18;;;2.00;;
51664;SDS011;37751;52.408;12.536;2023-05-27T08:53:54;12.80;;;1.98;;
51664;SDS011;37751;52.408;12.536;2023-05-27T08:56:22;8.40;;;1.88;;
51664;SDS011;37751;52.408;12.536;2023-05-27T08:58:53;8.45;;;2.05;;
51664;SDS011;37751;52.408;12.536;2023-05-27T09:01:23;6.80;;;2.00;;
51664;SDS011;37751;52.408;12.536;2023-05-27T09:03:54;7.70;;;1.75;;
51664;SDS011;37751;52.408;12.536;2023-05-27T09:06:23;15.25;;;2.58;;
51664;SDS011;37751;52.408;12.536;2023-05-27T09:08:50;9.98;;;2.50;;
51664;SDS011;37751;52.408;12.536;2023-05-27T09:11:22;7.53;;;1.95;;
51664;SDS011;37751;52.408;12.536;2023-05-27T09:13:53;9.05;;;2.03;;
51664;SDS011;37751;52.408;12.536;2023-05-27T09:16:24;11.02;;;2.58;;
51664;SDS011;37751;52.408;12.536;2023-05-27T09:18:52;6.78;;;1.90;;
51664;SDS011;37751;52.408;12.536;2023-05-27T09:21:20;9.82;;;2.22;;
51664;SDS011;37751;52.408;12.536;2023-05-27T09:23:48;9.23;;;2.55;;
51664;SDS011;37751;52.408;12.536;2023-05-27T09:26:16;14.38;;;2.08;;
51664;SDS011;37751;52.408;12.536;2023-05-27T09:28:43;8.63;;;2.15;;
51664;SDS011;37751;52.408;12.536;2023-05-27T09:31:12;6.22;;;2.15;;
51664;SDS011;37751;52.408;12.536;2023-05-27T09:33:40;7.32;;;2.00;;
51664;SDS011;37751;52.408;12.536;2023-05-27T09:36:08;4.07;;;1.90;;
51664;SDS011;37751;52.408;12.536;2023-05-27T09:38:36;8.82;;;2.35;;
51664;SDS011;37751;52.408;12.536;2023-05-27T09:41:04;5.82;;;2.08;;
51664;SDS011;37751;52.408;12.536;2023-05-27T09:43:32;5.22;;;1.80;;
51664;SDS011;37751;52.408;12.536;2023-05-27T09:46:01;8.75;;;1.90;;
51664;SDS011;37751;52.408;12.536;2023-05-27T09:48:31;6.05;;;1.67;;
51664;SDS011;37751;52.408;12.536;2023-05-27T09:50:59;7.00;;;1.95;;
51664;SDS011;37751;52.408;12.536;2023-05-27T09:53:28;10.77;;;3.45;;
51664;SDS011;37751;52.408;12.536;2023-05-27T09:55:58;9.30;;;2.95;;
51664;SDS011;37751;52.408;12.536;2023-05-27T09:58:26;6.57;;;2.03;;
51664;SDS011;37751;52.408;12.536;2023-05-27T10:00:55;5.75;;;1.95;;
51664;SDS011;37751;52.408;12.536;2023-05-27T10:03:24;6.45;;;1.67;;
51664;SDS011;37751;52.408;12.536;2023-05-27T10:05:52;8.18;;;1.83;;
51664;SDS011;37751;52.408;12.536;2023-05-27T10:08:20;4.25;;;1.50;;
51664;SDS011;37751;52.408;12.536;2023-05-27T10:10:53;5.07;;;2.00;;
51664;SDS011;37751;52.408;12.536;2023-05-27T10:13:23;4.65;;;1.80;;
51664;SDS011;37751;52.408;12.536;2023-05-27T10:15:53;6.47;;;1.67;;
51664;SDS011;37751;52.408;12.536;2023-05-27T10:18:21;4.60;;;1.80;;
51664;SDS011;37751;52.408;12.536;2023-05-27T10:20:57;6.45;;;2.13;;
51664;SDS011;37751;52.408;12.536;2023-05-27T10:23:30;2.58;;;1.25;;
51664;SDS011;37751;52.408;12.536;2023-05-27T10:26:05;13.20;;;1.98;;
51664;SDS011;37751;52.408;12.536;2023-05-27T10:28:36;3.90;;;1.50;;
51664;SDS011;37751;52.408;12.536;2023-05-27T10:31:10;7.20;;;1.70;;
51664;SDS011;37751;52.408;12.536;2023-05-27T10:33:47;4.97;;;1.85;;
51664;SDS011;37751;52.408;12.536;2023-05-27T10:36:22;4.05;;;1.88;;
51664;SDS011;37751;52.408;12.536;2023-05-27T10:38:56;6.68;;;1.67;;
51664;SDS011;37751;52.408;12.536;2023-05-27T10:41:39;4.60;;;1.58;;
51664;SDS011;37751;52.408;12.536;2023-05-27T10:44:35;7.07;;;1.40;;
51664;SDS011;37751;52.408;12.536;2023-05-27T10:47:08;6.43;;;1.85;;
51664;SDS011;37751;52.408;12.536;2023-05-27T10:49:39;3.08;;;1.38;;
51664;SDS011;37751;52.408;12.536;2023-05-27T10:52:13;2.53;;;1.50;;
51664;SDS011;37751;52.408;12.536;2023-05-27T10:54:47;2.28;;;1.80;;
51664;SDS011;37751;52.408;12.536;2023-05-27T10:57:19;7.70;;;1.80;;
51664;SDS011;37751;52.408;12.536;2023-05-27T10:59:53;3.70;;;1.15;;
51664;SDS011;37751;52.408;12.536;2023-05-27T11:02:28;5.00;;;1.50;;
51664;SDS011;37751;52.408;12.536;2023-05-27T11:05:09;4.20;;;1.33;;
51664;SDS011;37751;52.408;12.536;2023-05-27T11:07:42;3.65;;;1.27;;
51664;SDS011;37751;52.408;12.536;2023-05-27T11:10:10;4.45;;;1.48;;
51664;SDS011;37751;52.408;12.536;2023-05-27T11:12:38;5.35;;;1.60;;
51664;SDS011;37751;52.408;12.536;2023-05-27T11:15:12;3.85;;;1.38;;
51664;SDS011;37751;52.408;12.536;2023-05-27T11:17:40;4.22;;;1.42;;
51664;SDS011;37751;52.408;12.536;2023-05-27T11:20:08;2.58;;;1.55;;
51664;SDS011;37751;52.408;12.536;2023-05-27T11:22:37;2.92;;;1.63;;
51664;SDS011;37751;52.408;12.536;2023-05-27T11:25:05;2.45;;;1.60;;
51664;SDS011;37751;52.408;12.536;2023-05-27T11:27:34;4.65;;;1.70;;
51664;SDS011;37751;52.408;12.536;2023-05-27T11:30:07;2.53;;;1.38;;
51664;SDS011;37751;52.408;12.536;2023-05-27T11:32:37;4.82;;;1.55;;
51664;SDS011;37751;52.408;12.536;2023-05-27T11:35:12;7.32;;;1.50;;
51664;SDS011;37751;52.408;12.536;2023-05-27T11:37:45;6.75;;;1.60;;
51664;SDS011;37751;52.408;12.536;2023-05-27T11:40:22;6.13;;;1.77;;
51664;SDS011;37751;52.408;12.536;2023-05-27T11:42:50;4.28;;;1.80;;
51664;SDS011;37751;52.408;12.536;2023-05-27T11:45:20;4.88;;;2.05;;
51664;SDS011;37751;52.408;12.536;2023-05-27T11:47:49;5.30;;;1.65;;
51664;SDS011;37751;52.408;12.536;2023-05-27T11:50:22;4.07;;;1.58;;
51664;SDS011;37751;52.408;12.536;2023-05-27T11:52:55;6.20;;;1.63;;
51664;SDS011;37751;52.408;12.536;2023-05-27T11:55:25;5.32;;;2.03;;
51664;SDS011;37751;52.408;12.536;2023-05-27T11:57:53;5.35;;;1.60;;
51664;SDS011;37751;52.408;12.536;2023-05-27T12:00:21;2.20;;;1.52;;
51664;SDS011;37751;52.408;12.536;2023-05-27T12:02:49;4.95;;;2.00;;
51664;SDS011;37751;52.408;12.536;2023-05-27T12:05:17;3.67;;;1.67;;
51664;SDS011;37751;52.408;12.536;2023-05-27T12:08:00;6.35;;;1.95;;
51664;SDS011;37751;52.408;12.536;2023-05-27T12:10:28;3.55;;;1.77;;
51664;SDS011;37751;52.408;12.536;2023-05-27T12:13:05;5.97;;;2.28;;
51664;SDS011;37751;52.408;12.536;2023-05-27T12:15:34;2.97;;;1.70;;
51664;SDS011;37751;52.408;12.536;2023-05-27T12:18:02;4.25;;;1.80;;
51664;SDS011;37751;52.408;12.536;2023-05-27T12:20:29;10.52;;;1.80;;
51664;SDS011;37751;52.408;12.536;2023-05-27T12:22:58;5.07;;;2.33;;
51664;SDS011;37751;52.408;12.536;2023-05-27T12:25:26;4.55;;;2.00;;
51664;SDS011;37751;52.408;12.536;2023-05-27T12:27:53;6.38;;;1.80;;
51664;SDS011;37751;52.408;12.536;2023-05-27T12:30:21;6.18;;;1.90;;
51664;SDS011;37751;52.408;12.536;2023-05-27T12:32:49;5.22;;;2.00;;
51664;SDS011;37751;52.408;12.536;2023-05-27T12:35:17;4.57;;;1.77;;
51664;SDS011;37751;52.408;12.536;2023-05-27T12:37:45;4.70;;;2.10;;
51664;SDS011;37751;52.408;12.536;2023-05-27T12:40:13;6.68;;;1.90;;
51664;SDS011;37751;52.408;12.536;2023-05-27T12:42:42;3.10;;;1.48;;
51664;SDS011;37751;52.408;12.536;2023-05-27T12:45:10;5.20;;;1.80;;
51664;SDS011;37751;52.408;12.536;2023-05-27T12:47:38;5.95;;;2.10;;
51664;SDS011;37751;52.408;12.536;2023-05-27T12:50:06;3.58;;;1.80;;
51664;SDS011;37751;52.408;12.536;2023-05-27T12:52:35;4.53;;;1.83;;
51664;SDS011;37751;52.408;12.536;2023-05-27T12:55:03;7.15;;;2.15;;
51664;SDS011;37751;52.408;12.536;2023-05-27T12:57:31;6.40;;;1.83;;
51664;SDS011;37751;52.408;12.536;2023-05-27T12:59:59;4.05;;;1.77;;
51664;SDS011;37751;52.408;12.536;2023-05-27T13:02:27;5.35;;;1.80;;
51664;SDS011;37751;52.408;12.536;2023-05-27T13:04:57;6.28;;;1.92;;
51664;SDS011;37751;52.408;12.536;2023-05-27T13:07:28;4.28;;;2.20;;
51664;SDS011;37751;52.408;12.536;2023-05-27T13:09:56;7.60;;;1.80;;
51664;SDS011;37751;52.408;12.536;2023-05-27T13:12:24;3.00;;;1.48;;
51664;SDS011;37751;52.408;12.536;2023-05-27T13:14:52;5.07;;;1.50;;
51664;SDS011;37751;52.408;12.536;2023-05-27T13:17:20;5.47;;;1.67;;
51664;SDS011;37751;52.408;12.536;2023-05-27T13:19:48;5.55;;;1.83;;
51664;SDS011;37751;52.408;12.536;2023-05-27T13:22:15;4.10;;;1.83;;
51664;SDS011;37751;52.408;12.536;2023-05-27T13:24:43;1.90;;;1.38;;
51664;SDS011;37751;52.408;12.536;2023-05-27T13:27:11;6.22;;;1.60;;
51664;SDS011;37751;52.408;12.536;2023-05-27T13:29:40;2.13;;;1.40;;
51664;SDS011;37751;52.408;12.536;2023-05-27T13:32:08;5.40;;;1.67;;
51664;SDS011;37751;52.408;12.536;2023-05-27T13:34:36;1.67;;;1.10;;
51664;SDS011;37751;52.408;12.536;2023-05-27T13:37:04;4.15;;;1.33;;
51664;SDS011;37751;52.408;12.536;2023-05-27T13:39:32;3.70;;;1.33;;
51664;SDS011;37751;52.408;12.536;2023-05-27T13:41:59;2.22;;;1.30;;
51664;SDS011;37751;52.408;12.536;2023-05-27T13:44:27;4.32;;;1.40;;
51664;SDS011;37751;52.408;12.536;2023-05-27T13:46:55;6.80;;;1.60;;
51664;SDS011;37751;52.408;12.536;2023-05-27T13:49:23;3.90;;;1.63;;
51664;SDS011;37751;52.408;12.536;2023-05-27T13:51:51;4.15;;;1.80;;
51664;SDS011;37751;52.408;12.536;2023-05-27T13:54:19;3.53;;;1.40;;
51664;SDS011;37751;52.408;12.536;2023-05-27T13:56:47;3.58;;;1.75;;
51664;SDS011;37751;52.408;12.536;2023-05-27T13:59:15;4.35;;;1.80;;
51664;SDS011;37751;52.408;12.536;2023-05-27T14:01:43;2.88;;;1.88;;
51664;SDS011;37751;52.408;12.536;2023-05-27T14:04:11;4.07;;;1.55;;
51664;SDS011;37751;52.408;12.536;2023-05-27T14:06:39;3.58;;;1.30;;
51664;SDS011;37751;52.408;12.536;2023-05-27T14:09:07;3.15;;;1.42;;
51664;SDS011;37751;52.408;12.536;2023-05-27T14:11:35;4.53;;;1.60;;
51664;SDS011;37751;52.408;12.536;2023-05-27T14:14:03;5.22;;;1.15;;
51664;SDS011;37751;52.408;12.536;2023-05-27T14:16:31;3.67;;;1.30;;
51664;SDS011;37751;52.408;12.536;2023-05-27T14:18:59;1.95;;;1.40;;
51664;SDS011;37751;52.408;12.536;2023-05-27T14:21:27;4.47;;;2.00;;
51664;SDS011;37751;52.408;12.536;2023-05-27T14:23:54;2.28;;;1.70;;
51664;SDS011;37751;52.408;12.536;2023-05-27T14:26:22;3.55;;;1.77;;
51664;SDS011;37751;52.408;12.536;2023-05-27T14:28:50;2.15;;;1.38;;
51664;SDS011;37751;52.408;12.536;2023-05-27T14:31:18;2.20;;;1.48;;
51664;SDS011;37751;52.408;12.536;2023-05-27T14:33:46;2.90;;;1.83;;
51664;SDS011;37751;52.408;12.536;2023-05-27T14:36:14;5.35;;;1.75;;
51664;SDS011;37751;52.408;12.536;2023-05-27T14:38:42;2.70;;;1.60;;
51664;SDS011;37751;52.408;12.536;2023-05-27T14:41:11;3.55;;;1.52;;
51664;SDS011;37751;52.408;12.536;2023-05-27T14:43:38;4.13;;;1.48;;
51664;SDS011;37751;52.408;12.536;2023-05-27T14:46:06;3.33;;;1.38;;
51664;SDS011;37751;52.408;12.536;2023-05-27T14:48:34;3.88;;;1.75;;
51664;SDS011;37751;52.408;12.536;2023-05-27T14:51:03;3.15;;;1.95;;